Time;durP1;ratioP1;P1;durP2;ratioP2;P2;SDS_P1;SDS_P2;PMS_P1;PMS_P2;Temp;Humidity;BMP_temperature;BMP_pressure;BME280_temperature;BME280_humidity;BME280_pressure;Samples;Min_cycle;Max_cycle;Signal;HPM_P1;HPM_P2
2023/02/02 00:02:37;;;;;;;9.33;2.97;;;;;;;;;;10440170;28;20494;-80
2023/02/02 00:07:38;;;;;;;7.13;2.65;;;;;;;;;;10457285;28;20483;-78
2023/02/02 00:12:38;;;;;;;9.40;2.88;;;;;;;;;;10440900;28;20453;-74
2023/02/02 00:17:38;;;;;;;7.47;1.95;;;;;;;;;;10441270;28;20399;-76
2023/02/02 00:22:38;;;;;;;3.90;1.90;;;;;;;;;;10438811;28;20418;-74
2023/02/02 00:27:39;;;;;;;5.68;2.38;;;;;;;;;;10442148;28;20409;-75
2023/02/02 00:32:39;;;;;;;9.40;2.47;;;;;;;;;;10440034;28;20021;-78
2023/02/02 00:37:40;;;;;;;11.05;1.95;;;;;;;;;;10441478;28;20135;-76
2023/02/02 00:42:41;;;;;;;5.82;2.08;;;;;;;;;;10440996;28;20017;-76
2023/02/02 00:47:43;;;;;;;3.25;2.00;;;;;;;;;;10450156;28;20087;-77
2023/02/02 00:52:43;;;;;;;7.30;2.35;;;;;;;;;;10449728;28;20790;-76
2023/02/02 00:57:43;;;;;;;4.50;1.93;;;;;;;;;;10440260;28;20029;-75
2023/02/02 01:02:44;;;;;;;4.23;2.50;;;;;;;;;;10440205;28;20025;-77
2023/02/02 01:07:44;;;;;;;6.95;1.85;;;;;;;;;;10439706;28;20036;-73
2023/02/02 01:12:45;;;;;;;3.17;2.30;;;;;;;;;;10439681;28;20036;-75
2023/02/02 01:17:45;;;;;;;7.65;2.47;;;;;;;;;;10456035;28;20483;-75
2023/02/02 01:22:46;;;;;;;7.50;2.50;;;;;;;;;;10438408;28;20033;-76
2023/02/02 01:27:46;;;;;;;4.57;2.05;;;;;;;;;;10439311;28;20052;-75
2023/02/02 01:32:46;;;;;;;4.07;2.08;;;;;;;;;;10439092;28;20052;-72
2023/02/02 01:37:46;;;;;;;5.60;2.00;;;;;;;;;;10438707;28;20032;-73
2023/02/02 01:42:47;;;;;;;2.95;2.50;;;;;;;;;;10442049;28;20143;-75
2023/02/02 01:47:49;;;;;;;5.13;2.17;;;;;;;;;;10442076;28;20044;-76
2023/02/02 01:52:50;;;;;;;8.05;2.53;;;;;;;;;;10447175;28;20037;-75
2023/02/02 01:57:57;;;;;;;4.40;2.28;;;;;;;;;;10430527;28;20518;-72
2023/02/02 02:03:00;;;;;;;8.68;3.42;;;;;;;;;;10463168;28;20036;-75
2023/02/02 02:08:03;;;;;;;8.73;3.63;;;;;;;;;;10447704;28;20460;-73
2023/02/02 02:13:04;;;;;;;12.25;4.18;;;;;;;;;;10449112;28;20456;-75
2023/02/02 02:18:20;;;;;;;12.73;3.88;;;;;;;;;;10455564;28;20024;-76
2023/02/02 02:28:46;;;;;;;11.38;4.00;;;;;;;;;;10447224;28;20021;-80
2023/02/02 02:34:04;;;;;;;6.18;3.65;;;;;;;;;;10444398;28;20025;-77
2023/02/02 02:39:07;;;;;;;10.77;3.85;;;;;;;;;;10405637;28;20499;-76
2023/02/02 02:44:09;;;;;;;10.20;3.65;;;;;;;;;;10453990;28;20033;-71
2023/02/02 02:49:10;;;;;;;8.85;3.55;;;;;;;;;;10444861;28;20088;-75
2023/02/02 02:54:20;;;;;;;10.68;3.55;;;;;;;;;;10444988;28;20457;-79
2023/02/02 02:59:39;;;;;;;4.97;2.75;;;;;;;;;;10445760;28;20029;-77
2023/02/02 03:04:43;;;;;;;7.93;3.47;;;;;;;;;;10458327;28;20025;-75
2023/02/02 03:09:45;;;;;;;8.55;3.58;;;;;;;;;;10444193;28;20032;-72
2023/02/02 03:14:45;;;;;;;6.75;2.55;;;;;;;;;;10444521;28;20021;-74
2023/02/02 03:19:45;;;;;;;5.57;3.17;;;;;;;;;;10443852;28;20479;-74
2023/02/02 03:24:46;;;;;;;7.45;3.55;;;;;;;;;;10443771;28;20650;-77
2023/02/02 03:29:46;;;;;;;6.00;3.53;;;;;;;;;;10425304;28;20542;-74
2023/02/02 03:34:46;;;;;;;10.50;4.07;;;;;;;;;;10442895;28;20035;-77
2023/02/02 03:39:46;;;;;;;8.27;3.50;;;;;;;;;;10444093;28;20543;-78
2023/02/02 03:44:47;;;;;;;9.77;3.70;;;;;;;;;;10443260;28;20514;-72
2023/02/02 03:49:47;;;;;;;7.65;3.42;;;;;;;;;;10458901;28;20556;-75
2023/02/02 03:54:47;;;;;;;7.38;3.63;;;;;;;;;;10442791;28;20564;-74
2023/02/02 03:59:47;;;;;;;10.55;3.63;;;;;;;;;;10443976;28;20616;-70
2023/02/02 04:04:48;;;;;;;10.23;4.20;;;;;;;;;;10441967;28;20028;-76
2023/02/02 04:09:48;;;;;;;10.23;5.03;;;;;;;;;;10442149;28;20494;-73
2023/02/02 04:14:48;;;;;;;9.05;4.15;;;;;;;;;;10441857;28;20807;-73
2023/02/02 04:19:48;;;;;;;8.73;4.47;;;;;;;;;;10426865;28;20479;-73
2023/02/02 04:24:49;;;;;;;11.45;4.22;;;;;;;;;;10437545;28;20853;-75
2023/02/02 04:29:49;;;;;;;9.05;4.40;;;;;;;;;;10441407;28;20051;-77
2023/02/02 04:34:49;;;;;;;10.02;4.80;;;;;;;;;;10423077;28;20078;-74
2023/02/02 04:39:50;;;;;;;11.00;4.53;;;;;;;;;;10434067;28;20044;-75
2023/02/02 04:44:50;;;;;;;12.98;5.60;;;;;;;;;;10439135;28;20029;-76
2023/02/02 04:49:50;;;;;;;7.22;4.72;;;;;;;;;;10438890;28;20057;-72
2023/02/02 04:54:50;;;;;;;6.97;4.28;;;;;;;;;;10438343;28;20025;-72
2023/02/02 04:59:51;;;;;;;11.48;4.15;;;;;;;;;;10438901;28;20044;-76
2023/02/02 05:04:51;;;;;;;14.30;5.00;;;;;;;;;;10437977;28;20806;-76
2023/02/02 05:09:51;;;;;;;11.48;4.78;;;;;;;;;;10438749;28;20023;-76
2023/02/02 05:14:52;;;;;;;19.55;4.97;;;;;;;;;;10435619;28;20063;-77
2023/02/02 05:19:52;;;;;;;13.10;5.25;;;;;;;;;;10458385;28;20032;-77
2023/02/02 05:24:52;;;;;;;13.15;4.78;;;;;;;;;;10430859;28;20025;-73
2023/02/02 05:29:52;;;;;;;19.63;4.30;;;;;;;;;;10421896;28;20021;-73
2023/02/02 05:34:53;;;;;;;9.95;5.30;;;;;;;;;;10438119;28;20021;-76
2023/02/02 05:39:53;;;;;;;14.60;7.97;;;;;;;;;;10440889;28;20133;-71
2023/02/02 05:44:53;;;;;;;20.00;7.57;;;;;;;;;;10438752;28;20029;-77
2023/02/02 05:49:54;;;;;;;17.88;8.68;;;;;;;;;;10420897;28;20049;-72
2023/02/02 05:54:54;;;;;;;20.10;9.98;;;;;;;;;;10438396;28;20569;-73
2023/02/02 05:59:54;;;;;;;22.85;10.88;;;;;;;;;;10439581;28;20562;-77
2023/02/02 06:04:54;;;;;;;23.90;11.70;;;;;;;;;;10439542;28;20025;-73
2023/02/02 06:09:55;;;;;;;32.17;13.30;;;;;;;;;;10438751;28;20047;-74
2023/02/02 06:14:55;;;;;;;22.85;11.50;;;;;;;;;;10437937;28;20371;-77
2023/02/02 06:19:55;;;;;;;23.57;11.47;;;;;;;;;;10433512;28;20027;-76
2023/02/02 06:24:55;;;;;;;25.92;11.32;;;;;;;;;;10436725;28;20514;-71
2023/02/02 06:29:56;;;;;;;23.60;11.80;;;;;;;;;;10442981;28;20495;-74
2023/02/02 06:34:56;;;;;;;23.17;11.98;;;;;;;;;;10446562;28;20564;-77
2023/02/02 06:39:56;;;;;;;25.88;12.57;;;;;;;;;;10446085;28;20376;-73
2023/02/02 06:44:56;;;;;;;24.23;11.82;;;;;;;;;;10444474;28;20083;-74
2023/02/02 06:49:57;;;;;;;25.75;13.02;;;;;;;;;;10444646;28;20049;-73
2023/02/02 06:54:57;;;;;;;25.65;11.63;;;;;;;;;;10461143;28;20029;-75
2023/02/02 06:59:57;;;;;;;21.25;11.98;;;;;;;;;;10444027;28;20051;-72
2023/02/02 07:04:57;;;;;;;29.60;14.55;;;;;;;;;;10443668;28;20486;-74
2023/02/02 07:09:58;;;;;;;20.40;12.20;;;;;;;;;;10443410;28;20017;-72
2023/02/02 07:14:58;;;;;;;29.52;13.38;;;;;;;;;;10443446;28;20208;-74
2023/02/02 07:19:58;;;;;;;25.13;12.65;;;;;;;;;;10460461;28;20032;-73
2023/02/02 07:24:59;;;;;;;30.02;15.88;;;;;;;;;;10444329;28;20116;-71
2023/02/02 07:29:59;;;;;;;33.17;15.77;;;;;;;;;;10443038;28;20044;-70
2023/02/02 07:34:59;;;;;;;37.00;15.20;;;;;;;;;;10442608;28;20528;-76
2023/02/02 07:39:59;;;;;;;36.25;14.38;;;;;;;;;;10442171;28;20037;-72
2023/02/02 07:45:00;;;;;;;34.35;17.50;;;;;;;;;;10442322;28;20221;-73
2023/02/02 07:50:00;;;;;;;30.13;16.55;;;;;;;;;;10441985;28;20068;-80
2023/02/02 07:55:00;;;;;;;36.75;14.18;;;;;;;;;;10441383;28;20013;-77
2023/02/02 08:00:01;;;;;;;45.03;18.73;;;;;;;;;;10458512;28;20032;-80
2023/02/02 08:05:01;;;;;;;32.90;16.37;;;;;;;;;;10441091;28;20078;-74
2023/02/02 08:10:01;;;;;;;34.88;14.65;;;;;;;;;;10441189;28;20137;-82
2023/02/02 08:15:02;;;;;;;40.03;15.40;;;;;;;;;;10441432;28;20028;-73
2023/02/02 08:20:02;;;;;;;33.70;11.77;;;;;;;;;;10457163;28;20025;-73
2023/02/02 08:25:03;;;;;;;29.05;13.98;;;;;;;;;;10400510;28;20053;-73
2023/02/02 08:30:03;;;;;;;32.57;14.67;;;;;;;;;;10419776;28;20056;-72
2023/02/02 08:35:04;;;;;;;33.92;14.30;;;;;;;;;;10440851;28;20134;-78
2023/02/02 08:40:04;;;;;;;31.27;13.38;;;;;;;;;;10439978;28;20032;-73
2023/02/02 08:45:05;;;;;;;30.85;13.45;;;;;;;;;;10441459;28;20051;-73
2023/02/02 08:50:06;;;;;;;32.40;13.65;;;;;;;;;;10440961;28;20052;-72
2023/02/02 08:55:06;;;;;;;27.55;13.05;;;;;;;;;;10439640;28;20521;-77
2023/02/02 09:00:07;;;;;;;31.60;12.87;;;;;;;;;;10440326;28;20402;-74
2023/02/02 09:05:07;;;;;;;26.33;10.57;;;;;;;;;;10441235;28;20562;-75
2023/02/02 09:10:08;;;;;;;23.42;10.88;;;;;;;;;;10439110;28;20441;-72
2023/02/02 09:15:08;;;;;;;24.02;10.95;;;;;;;;;;10438912;28;20613;-75
2023/02/02 09:20:09;;;;;;;28.25;9.88;;;;;;;;;;10440040;28;20043;-76
2023/02/02 09:25:09;;;;;;;25.65;11.75;;;;;;;;;;10455271;28;20029;-72
2023/02/02 09:30:09;;;;;;;24.75;10.13;;;;;;;;;;10422136;28;20133;-75
2023/02/02 09:35:10;;;;;;;23.05;10.57;;;;;;;;;;10439410;28;20103;-77
2023/02/02 09:40:16;;;;;;;20.50;9.60;;;;;;;;;;10440316;28;20039;-79
2023/02/02 09:45:22;;;;;;;23.50;10.82;;;;;;;;;;10439292;28;20040;-75
2023/02/02 09:50:38;;;;;;;36.63;9.68;;;;;;;;;;10439462;28;20156;-76
2023/02/02 09:55:40;;;;;;;24.27;8.63;;;;;;;;;;10439204;28;20031;-74
2023/02/02 10:00:52;;;;;;;23.60;9.10;;;;;;;;;;10437881;28;20029;-79
2023/02/02 10:06:04;;;;;;;27.13;9.60;;;;;;;;;;10444520;28;20629;-74
2023/02/02 10:11:24;;;;;;;20.42;9.18;;;;;;;;;;10447694;28;20025;-78
2023/02/02 10:16:25;;;;;;;28.50;9.98;;;;;;;;;;10420995;28;20025;-71
2023/02/02 10:21:32;;;;;;;21.17;9.98;;;;;;;;;;10426144;28;20025;-77
2023/02/02 10:26:37;;;;;;;17.58;9.95;;;;;;;;;;10445470;28;20025;-73
2023/02/02 10:31:37;;;;;;;19.33;9.27;;;;;;;;;;10445714;28;20629;-72
2023/02/02 10:36:49;;;;;;;21.15;7.65;;;;;;;;;;10445314;28;20017;-72
2023/02/02 10:42:02;;;;;;;13.88;6.55;;;;;;;;;;10446448;28;20128;-72
2023/02/02 10:47:04;;;;;;;10.45;4.60;;;;;;;;;;10444709;28;20118;-80
2023/02/02 10:52:13;;;;;;;5.45;2.13;;;;;;;;;;10446521;28;20017;-75
2023/02/02 10:57:15;;;;;;;6.15;1.83;;;;;;;;;;10445367;28;20104;-74
2023/02/02 11:02:15;;;;;;;5.32;1.73;;;;;;;;;;10443860;28;20025;-76
2023/02/02 11:07:19;;;;;;;6.32;1.85;;;;;;;;;;10443927;28;20452;-71
2023/02/02 11:12:23;;;;;;;6.15;1.45;;;;;;;;;;10443315;28;20116;-75
2023/02/02 11:17:24;;;;;;;5.60;1.40;;;;;;;;;;10444650;28;20032;-76
2023/02/02 11:22:25;;;;;;;4.35;1.98;;;;;;;;;;10442745;28;20025;-74
2023/02/02 11:27:27;;;;;;;10.32;1.40;;;;;;;;;;10442704;28;20353;-74
2023/02/02 11:32:29;;;;;;;7.55;1.60;;;;;;;;;;10442857;28;20025;-76
2023/02/02 11:37:30;;;;;;;5.07;1.77;;;;;;;;;;10458786;28;20029;-76
2023/02/02 11:42:31;;;;;;;4.60;1.70;;;;;;;;;;10442415;28;20025;-72
2023/02/02 11:47:32;;;;;;;3.67;1.45;;;;;;;;;;10442678;28;20053;-75
2023/02/02 11:52:32;;;;;;;4.03;1.60;;;;;;;;;;10442636;28;20032;-71
2023/02/02 11:57:32;;;;;;;2.53;1.58;;;;;;;;;;10424933;28;20487;-74
2023/02/02 12:02:33;;;;;;;2.72;1.75;;;;;;;;;;10443199;28;20035;-75
2023/02/02 12:07:34;;;;;;;4.47;1.93;;;;;;;;;;10440828;28;20025;-73
2023/02/02 12:12:37;;;;;;;5.18;1.90;;;;;;;;;;10441683;28;20055;-77
2023/02/02 12:17:44;;;;;;;3.25;1.95;;;;;;;;;;10440977;28;20086;-73
2023/02/02 12:22:47;;;;;;;3.90;1.80;;;;;;;;;;10440681;28;20021;-72
2023/02/02 12:27:47;;;;;;;4.35;1.90;;;;;;;;;;10440049;28;20115;-77
2023/02/02 12:32:57;;;;;;;3.25;2.40;;;;;;;;;;10440295;28;20508;-76
2023/02/02 12:38:16;;;;;;;12.65;2.55;;;;;;;;;;10457063;28;20028;-80
2023/02/02 12:43:25;;;;;;;7.05;2.35;;;;;;;;;;10441045;28;20024;-75
2023/02/02 12:48:32;;;;;;;3.90;1.30;;;;;;;;;;10439566;28;20091;-72
2023/02/02 12:53:32;;;;;;;5.07;2.00;;;;;;;;;;10439624;28;20017;-71
2023/02/02 12:58:35;;;;;;;4.43;2.13;;;;;;;;;;10439858;28;20052;-76
2023/02/02 13:03:42;;;;;;;7.32;2.60;;;;;;;;;;10439347;28;20025;-71
2023/02/02 13:08:45;;;;;;;5.20;2.40;;;;;;;;;;10440729;28;20113;-78
2023/02/02 13:13:46;;;;;;;9.57;2.03;;;;;;;;;;10439080;28;20103;-72
2023/02/02 13:19:15;;;;;;;5.53;1.88;;;;;;;;;;10418906;28;20031;-73
2023/02/02 13:24:22;;;;;;;4.18;2.22;;;;;;;;;;10400767;28;20491;-75
2023/02/02 13:29:29;;;;;;;4.05;2.35;;;;;;;;;;10446498;28;20029;-77
2023/02/02 13:34:44;;;;;;;4.28;2.10;;;;;;;;;;10446882;28;20029;-71
2023/02/02 13:39:59;;;;;;;5.25;2.38;;;;;;;;;;10434392;28;20139;-72
2023/02/02 13:45:04;;;;;;;5.13;1.67;;;;;;;;;;10444248;28;20036;-72
2023/02/02 13:50:11;;;;;;;5.80;1.92;;;;;;;;;;10448473;28;20156;-70
2023/02/02 13:55:29;;;;;;;4.40;2.40;;;;;;;;;;10447763;28;20024;-76
2023/02/02 14:00:33;;;;;;;6.53;2.67;;;;;;;;;;10457297;28;20021;-74
2023/02/02 14:05:38;;;;;;;3.55;1.77;;;;;;;;;;10441799;28;20032;-73
2023/02/02 14:10:43;;;;;;;4.88;2.25;;;;;;;;;;10418507;28;20373;-76
2023/02/02 14:15:44;;;;;;;3.42;1.83;;;;;;;;;;10451719;28;20021;-72
2023/02/02 14:20:45;;;;;;;7.27;2.67;;;;;;;;;;10443468;28;20025;-76
2023/02/02 14:25:47;;;;;;;5.10;2.17;;;;;;;;;;10443724;28;20155;-73
2023/02/02 14:31:07;;;;;;;5.75;2.45;;;;;;;;;;10442992;28;20028;-74
2023/02/02 14:36:11;;;;;;;3.15;1.55;;;;;;;;;;10436252;28;20024;-75
2023/02/02 14:46:48;;;;;;;4.63;2.20;;;;;;;;;;10442657;28;20037;-74
2023/02/02 14:51:51;;;;;;;4.60;1.88;;;;;;;;;;10442118;28;20033;-72
2023/02/02 14:56:56;;;;;;;5.57;2.30;;;;;;;;;;10447389;28;20023;-79
2023/02/02 15:02:05;;;;;;;7.43;3.85;;;;;;;;;;10446736;28;20700;-79
2023/02/02 15:07:21;;;;;;;9.20;4.78;;;;;;;;;;10445614;28;20538;-72
2023/02/02 15:12:25;;;;;;;8.10;4.18;;;;;;;;;;10446612;28;20021;-72
2023/02/02 15:17:26;;;;;;;7.18;3.90;;;;;;;;;;10440648;28;20033;-70
2023/02/02 15:22:26;;;;;;;5.80;4.13;;;;;;;;;;10440863;28;20032;-74
2023/02/02 15:27:26;;;;;;;5.70;4.07;;;;;;;;;;10439889;28;20094;-72
2023/02/02 15:32:28;;;;;;;5.10;3.58;;;;;;;;;;10441373;28;20360;-70
2023/02/02 15:37:38;;;;;;;4.30;3.05;;;;;;;;;;10423172;28;20520;-70
2023/02/02 15:42:52;;;;;;;8.07;4.88;;;;;;;;;;10441805;28;20430;-72
2023/02/02 15:47:54;;;;;;;7.78;5.60;;;;;;;;;;10439071;28;20051;-72
2023/02/02 15:52:54;;;;;;;5.38;3.60;;;;;;;;;;10439638;28;20098;-78
2023/02/02 15:57:54;;;;;;;3.78;3.35;;;;;;;;;;10449029;28;20043;-74
2023/02/02 16:03:17;;;;;;;4.47;2.35;;;;;;;;;;10438424;28;20017;-74
2023/02/02 16:08:24;;;;;;;5.25;2.78;;;;;;;;;;10426726;28;20023;-74
2023/02/02 16:13:26;;;;;;;2.70;2.25;;;;;;;;;;10439411;28;20673;-74
2023/02/02 16:18:26;;;;;;;4.05;2.72;;;;;;;;;;10445814;28;20478;-70
2023/02/02 16:23:29;;;;;;;4.20;2.55;;;;;;;;;;10443736;28;20048;-72
2023/02/02 16:28:30;;;;;;;3.38;2.25;;;;;;;;;;10444064;28;20033;-70
2023/02/02 16:33:35;;;;;;;5.40;2.83;;;;;;;;;;10439548;28;20017;-72
2023/02/02 16:38:36;;;;;;;5.90;3.13;;;;;;;;;;10437975;28;20572;-71
2023/02/02 16:43:37;;;;;;;5.60;3.25;;;;;;;;;;10437183;28;20028;-70
2023/02/02 16:48:45;;;;;;;3.50;2.35;;;;;;;;;;10438225;28;20077;-75
2023/02/02 16:53:50;;;;;;;12.32;3.08;;;;;;;;;;10431195;28;20116;-72
2023/02/02 16:58:56;;;;;;;7.30;3.22;;;;;;;;;;10442737;28;20092;-71
2023/02/02 17:03:58;;;;;;;7.10;2.73;;;;;;;;;;10437502;28;20150;-70
2023/02/02 17:09:17;;;;;;;7.00;3.28;;;;;;;;;;10429589;28;20033;-70
2023/02/02 17:14:19;;;;;;;5.75;3.40;;;;;;;;;;10452669;28;20394;-72
2023/02/02 17:19:19;;;;;;;3.15;2.40;;;;;;;;;;10419960;28;20029;-72
2023/02/02 17:24:19;;;;;;;4.50;3.80;;;;;;;;;;10427389;28;20013;-75
2023/02/02 17:29:20;;;;;;;5.35;3.90;;;;;;;;;;10440987;28;20028;-72
2023/02/02 17:34:21;;;;;;;4.78;3.60;;;;;;;;;;10426098;28;20017;-77
2023/02/02 17:39:21;;;;;;;5.80;4.50;;;;;;;;;;10431821;28;20120;-72
2023/02/02 17:44:21;;;;;;;7.25;4.03;;;;;;;;;;10441206;28;20029;-72
2023/02/02 17:49:21;;;;;;;7.57;4.63;;;;;;;;;;10432906;28;20060;-77
2023/02/02 17:54:22;;;;;;;7.90;4.23;;;;;;;;;;10423141;28;20482;-73
2023/02/02 17:59:22;;;;;;;6.03;3.15;;;;;;;;;;10415061;28;20267;-76
2023/02/02 18:04:23;;;;;;;7.22;3.15;;;;;;;;;;10414963;28;20029;-70
2023/02/02 18:09:24;;;;;;;7.93;4.13;;;;;;;;;;10398038;28;20013;-71
2023/02/02 18:14:24;;;;;;;4.63;3.40;;;;;;;;;;10424476;28;20411;-74
2023/02/02 18:19:24;;;;;;;6.43;3.87;;;;;;;;;;10417876;28;20013;-76
2023/02/02 18:24:25;;;;;;;3.85;2.83;;;;;;;;;;10419178;28;20033;-72
2023/02/02 18:29:25;;;;;;;6.18;2.30;;;;;;;;;;10417953;28;20025;-75
2023/02/02 18:34:32;;;;;;;4.38;2.90;;;;;;;;;;10418312;28;20531;-75
2023/02/02 18:39:33;;;;;;;5.30;3.47;;;;;;;;;;10417563;28;20029;-71
2023/02/02 18:44:35;;;;;;;3.60;2.87;;;;;;;;;;10420616;28;20424;-74
2023/02/02 18:49:35;;;;;;;3.75;2.80;;;;;;;;;;10403311;28;20037;-75
2023/02/02 18:54:35;;;;;;;5.57;2.97;;;;;;;;;;10424605;28;20029;-75
2023/02/02 18:59:36;;;;;;;3.75;2.92;;;;;;;;;;10425268;28;20028;-75
2023/02/02 19:04:36;;;;;;;4.38;3.10;;;;;;;;;;10414748;28;20403;-75
2023/02/02 19:09:36;;;;;;;4.90;3.45;;;;;;;;;;10432409;28;20081;-76
2023/02/02 19:14:37;;;;;;;7.57;2.83;;;;;;;;;;10442155;28;20017;-71
2023/02/02 19:19:37;;;;;;;6.50;3.85;;;;;;;;;;10440105;28;20082;-75
2023/02/02 19:24:38;;;;;;;6.35;4.60;;;;;;;;;;10449710;28;20021;-75
2023/02/02 19:29:38;;;;;;;9.38;4.35;;;;;;;;;;10443305;28;20025;-71
2023/02/02 19:34:39;;;;;;;7.55;4.05;;;;;;;;;;10442157;28;20546;-72
2023/02/02 19:39:39;;;;;;;5.70;3.20;;;;;;;;;;10438249;28;20028;-70
2023/02/02 19:44:40;;;;;;;7.23;4.40;;;;;;;;;;10443452;28;20021;-71
2023/02/02 19:49:41;;;;;;;8.50;3.80;;;;;;;;;;10442591;28;20056;-71
2023/02/02 19:54:43;;;;;;;8.40;4.60;;;;;;;;;;10439719;28;20020;-80
2023/02/02 19:59:45;;;;;;;6.30;4.05;;;;;;;;;;10442805;28;20017;-75
2023/02/02 20:04:47;;;;;;;6.35;4.18;;;;;;;;;;10418369;28;20029;-74
2023/02/02 20:09:47;;;;;;;5.97;3.80;;;;;;;;;;10426181;28;20107;-75
2023/02/02 20:14:47;;;;;;;7.20;3.45;;;;;;;;;;10422108;28;20017;-75
2023/02/02 20:19:48;;;;;;;4.90;3.53;;;;;;;;;;10420021;28;20024;-70
2023/02/02 20:24:48;;;;;;;8.13;4.03;;;;;;;;;;10422751;28;20108;-74
2023/02/02 20:29:49;;;;;;;9.50;4.88;;;;;;;;;;10400079;28;20010;-71
2023/02/02 20:34:50;;;;;;;6.53;3.35;;;;;;;;;;10428867;28;20054;-73
2023/02/02 20:40:01;;;;;;;5.18;3.83;;;;;;;;;;10422210;28;20019;-73
2023/02/02 20:45:01;;;;;;;6.90;3.55;;;;;;;;;;10429455;28;20779;-77
2023/02/02 20:50:02;;;;;;;5.03;3.50;;;;;;;;;;10422116;28;20053;-73
2023/02/02 20:55:03;;;;;;;7.65;3.53;;;;;;;;;;10419597;28;20025;-77
2023/02/02 21:00:04;;;;;;;11.50;3.90;;;;;;;;;;10421267;28;20079;-75
2023/02/02 21:05:05;;;;;;;7.65;4.57;;;;;;;;;;10414406;28;20072;-75
2023/02/02 21:10:05;;;;;;;6.40;4.38;;;;;;;;;;10414734;28;20181;-74
2023/02/02 21:15:06;;;;;;;6.65;4.18;;;;;;;;;;10424272;28;20108;-71
2023/02/02 21:20:06;;;;;;;9.15;4.22;;;;;;;;;;10431557;28;20126;-74
2023/02/02 21:25:07;;;;;;;10.80;3.88;;;;;;;;;;10422692;28;20032;-72
2023/02/02 21:30:08;;;;;;;4.88;3.72;;;;;;;;;;10437235;28;20150;-72
2023/02/02 21:35:09;;;;;;;7.35;4.75;;;;;;;;;;10439411;28;20017;-76
2023/02/02 21:40:11;;;;;;;13.32;4.53;;;;;;;;;;10439209;28;20024;-73
2023/02/02 21:45:30;;;;;;;9.07;4.38;;;;;;;;;;10438848;28;20091;-70
2023/02/02 21:50:33;;;;;;;7.35;4.70;;;;;;;;;;10433334;28;20037;-75
2023/02/02 21:55:35;;;;;;;7.35;4.63;;;;;;;;;;10439693;28;20110;-75
2023/02/02 22:00:35;;;;;;;8.52;4.60;;;;;;;;;;10443741;28;20044;-70
2023/02/02 22:05:36;;;;;;;9.75;5.05;;;;;;;;;;10429348;28;20426;-75
2023/02/02 22:10:41;;;;;;;11.23;5.63;;;;;;;;;;10438648;28;20062;-73
2023/02/02 22:15:44;;;;;;;11.45;4.93;;;;;;;;;;10447485;28;20411;-72
2023/02/02 22:20:49;;;;;;;10.73;4.63;;;;;;;;;;10429946;28;20032;-70
2023/02/02 22:25:51;;;;;;;8.10;5.03;;;;;;;;;;10418005;28;20021;-75
2023/02/02 22:30:53;;;;;;;8.05;4.55;;;;;;;;;;10429527;28;20079;-72
2023/02/02 22:35:53;;;;;;;10.43;5.15;;;;;;;;;;10436468;28;20016;-69
2023/02/02 22:40:53;;;;;;;11.33;5.50;;;;;;;;;;10446447;28;20021;-75
2023/02/02 22:45:54;;;;;;;7.07;4.88;;;;;;;;;;10442584;28;20044;-70
2023/02/02 22:50:54;;;;;;;7.32;4.82;;;;;;;;;;10445423;28;20024;-74
2023/02/02 22:55:55;;;;;;;12.23;5.33;;;;;;;;;;10445110;28;20021;-71
2023/02/02 23:00:55;;;;;;;9.55;5.25;;;;;;;;;;10445104;28;20025;-71
2023/02/02 23:05:56;;;;;;;9.35;4.13;;;;;;;;;;10444701;28;20406;-71
2023/02/02 23:10:56;;;;;;;6.65;3.97;;;;;;;;;;10445434;28;20363;-71
2023/02/02 23:15:56;;;;;;;6.97;3.57;;;;;;;;;;10444329;28;20021;-71
2023/02/02 23:20:56;;;;;;;7.28;4.68;;;;;;;;;;10444188;28;20025;-72
2023/02/02 23:25:57;;;;;;;6.97;4.97;;;;;;;;;;10444196;28;20028;-75
2023/02/02 23:30:57;;;;;;;6.68;4.20;;;;;;;;;;10443498;28;20025;-75
2023/02/02 23:35:58;;;;;;;5.85;4.28;;;;;;;;;;10445551;28;20517;-71
2023/02/02 23:40:59;;;;;;;3.37;2.73;;;;;;;;;;10445401;28;20035;-74
2023/02/02 23:45:59;;;;;;;4.18;3.08;;;;;;;;;;10443679;28;20291;-73
2023/02/02 23:51:00;;;;;;;4.37;2.97;;;;;;;;;;10445681;28;20038;-73
2023/02/02 23:56:00;;;;;;;4.35;3.08;;;;;;;;;;10443708;28;20564;-75
